createdAt,value
2022-10-11T00:02:01.716Z,14.10
2022-10-11T00:04:28.162Z,13.10
2022-10-11T00:06:54.858Z,14.10
2022-10-11T00:09:21.360Z,16.30
2022-10-11T00:11:47.755Z,15.40
2022-10-11T00:14:14.516Z,14.20
2022-10-11T00:16:44.332Z,16.00
2022-10-11T00:19:11.541Z,15.90
2022-10-11T00:21:38.026Z,16.90
2022-10-11T00:24:05.462Z,14.30
2022-10-11T00:26:32.057Z,15.10
2022-10-11T00:28:58.563Z,14.60
2022-10-11T00:31:25.221Z,15.80
2022-10-11T00:33:53.964Z,18.20
2022-10-11T00:36:21.826Z,17.80
2022-10-11T00:38:48.652Z,17.10
2022-10-11T00:41:16.809Z,16.60
2022-10-11T00:43:44.416Z,14.60
2022-10-11T00:46:13.923Z,16.80
2022-10-11T00:48:45.990Z,16.90
2022-10-11T00:51:23.360Z,17.90
2022-10-11T00:53:51.897Z,16.70
2022-10-11T00:56:31.214Z,18.70
2022-10-11T00:59:02.342Z,16.40
2022-10-11T01:01:28.947Z,19.20
2022-10-11T01:03:56.950Z,16.90
2022-10-11T01:06:23.449Z,19.20
2022-10-11T01:08:52.090Z,16.90
2022-10-11T01:11:24.394Z,16.60
2022-10-11T01:14:43.745Z,18.30
2022-10-11T01:17:29.506Z,16.30
2022-10-11T01:20:31.948Z,18.70
2022-10-11T01:23:55.158Z,17.20
2022-10-11T01:26:48.565Z,20.30
2022-10-11T01:30:02.984Z,23.80
2022-10-11T01:32:40.281Z,21.70
2022-10-11T01:35:21.074Z,27.10
2022-10-11T01:38:01.404Z,19.90
2022-10-11T01:40:38.959Z,20.90
2022-10-11T01:43:06.066Z,25.10
2022-10-11T01:45:34.670Z,25.60
2022-10-11T01:48:12.274Z,22.90
2022-10-11T01:50:52.458Z,13.80
2022-10-11T01:53:46.449Z,21.00
2022-10-11T01:56:40.422Z,23.50
2022-10-11T01:59:41.170Z,22.20
2022-10-11T02:02:45.905Z,21.20
2022-10-11T02:05:45.220Z,40.90
2022-10-11T02:08:45.113Z,35.70
2022-10-11T02:11:38.928Z,26.40
2022-10-11T02:14:20.436Z,19.60
2022-10-11T02:16:54.999Z,18.40
2022-10-11T02:19:30.026Z,16.60
2022-10-11T02:22:06.037Z,19.20
2022-10-11T02:24:37.608Z,18.30
2022-10-11T02:27:06.180Z,15.30
2022-10-11T02:29:39.269Z,17.00
2022-10-11T02:32:08.545Z,18.50
2022-10-11T02:34:47.568Z,17.90
2022-10-11T02:37:34.388Z,16.10
2022-10-11T02:40:24.806Z,17.80
2022-10-11T02:42:59.360Z,19.70
2022-10-11T02:45:36.724Z,18.60
2022-10-11T02:48:06.039Z,19.40
2022-10-11T02:50:33.031Z,16.30
2022-10-11T02:52:59.484Z,17.00
2022-10-11T02:55:26.083Z,19.80
2022-10-11T02:57:52.693Z,17.90
2022-10-11T03:00:19.393Z,16.20
2022-10-11T03:02:45.764Z,19.20
2022-10-11T03:05:12.350Z,21.30
2022-10-11T03:07:38.793Z,19.10
2022-10-11T03:10:06.782Z,17.10
2022-10-11T03:12:33.643Z,16.10
2022-10-11T03:15:00.084Z,19.40
2022-10-11T03:17:42.586Z,18.70
2022-10-11T03:20:09.627Z,18.20
2022-10-11T03:22:36.410Z,19.80
2022-10-11T03:25:04.675Z,21.10
2022-10-11T03:27:33.634Z,19.80
2022-10-11T03:30:00.634Z,18.60
2022-10-11T03:32:28.241Z,20.60
2022-10-11T03:34:54.686Z,20.10
2022-10-11T03:37:21.201Z,19.00
2022-10-11T03:39:47.638Z,19.60
2022-10-11T03:42:14.676Z,20.80
2022-10-11T03:44:42.172Z,19.80
2022-10-11T03:47:09.835Z,20.10
2022-10-11T03:49:41.337Z,18.20
2022-10-11T03:52:10.445Z,20.00
2022-10-11T03:54:36.992Z,19.50
2022-10-11T03:57:03.645Z,18.70
2022-10-11T03:59:30.233Z,23.80
2022-10-11T04:01:57.062Z,21.90
2022-10-11T04:04:23.618Z,20.00
2022-10-11T04:06:50.018Z,22.90
2022-10-11T04:09:16.502Z,18.10
2022-10-11T04:11:42.876Z,20.00
2022-10-11T04:14:09.397Z,22.90
2022-10-11T04:16:38.588Z,21.70
2022-10-11T04:19:05.100Z,30.40
2022-10-11T04:21:31.550Z,25.90
2022-10-11T04:23:58.005Z,25.70
2022-10-11T04:26:24.430Z,26.40
2022-10-11T04:28:50.940Z,27.40
2022-10-11T04:31:17.444Z,23.80
2022-10-11T04:33:43.928Z,24.00
2022-10-11T04:36:10.585Z,21.80
2022-10-11T04:38:36.992Z,22.30
2022-10-11T04:41:09.358Z,18.80
2022-10-11T04:43:36.699Z,20.70
2022-10-11T04:46:04.460Z,19.50
2022-10-11T04:48:31.399Z,21.30
2022-10-11T04:50:57.950Z,35.40
2022-10-11T04:53:24.955Z,76.90
2022-10-11T04:55:57.906Z,87.80
2022-10-11T04:58:24.375Z,81.40
2022-10-11T05:00:50.961Z,91.60
2022-10-11T05:03:17.353Z,63.30
2022-10-11T05:05:43.868Z,47.70
2022-10-11T05:08:11.496Z,34.30
2022-10-11T05:10:37.999Z,44.20
2022-10-11T05:13:04.638Z,51.60
2022-10-11T05:15:32.245Z,48.40
2022-10-11T05:17:58.711Z,53.00
2022-10-11T05:20:25.722Z,39.00
2022-10-11T05:22:52.132Z,29.30
2022-10-11T05:25:18.513Z,31.20
2022-10-11T05:27:45.454Z,58.50
2022-10-11T05:30:12.425Z,48.40
2022-10-11T05:32:38.945Z,37.00
2022-10-11T05:35:06.056Z,27.60
2022-10-11T05:37:32.579Z,22.60
2022-10-11T05:39:58.958Z,30.50
2022-10-11T05:42:25.367Z,23.60
2022-10-11T05:44:51.771Z,22.70
2022-10-11T05:47:18.194Z,20.40
2022-10-11T05:49:44.575Z,21.90
2022-10-11T05:52:11.477Z,28.40
2022-10-11T05:54:37.870Z,25.60
2022-10-11T05:57:04.358Z,20.30
2022-10-11T05:59:30.822Z,19.20
2022-10-11T06:01:57.229Z,19.20
2022-10-11T06:04:23.645Z,20.70
2022-10-11T06:06:50.041Z,16.50
2022-10-11T06:09:16.473Z,22.20
2022-10-11T06:11:44.030Z,17.80
2022-10-11T06:14:11.499Z,20.00
2022-10-11T06:16:38.320Z,19.10
2022-10-11T06:19:05.112Z,17.70
2022-10-11T06:21:31.539Z,22.00
2022-10-11T06:24:01.394Z,27.40
2022-10-11T06:26:29.419Z,32.40
2022-10-11T06:28:56.497Z,22.10
2022-10-11T06:31:23.323Z,17.40
2022-10-11T06:33:49.780Z,17.50
2022-10-11T06:36:17.812Z,18.20
2022-10-11T06:38:45.486Z,18.70
2022-10-11T06:41:22.712Z,18.40
2022-10-11T06:43:51.705Z,17.60
2022-10-11T06:46:20.667Z,17.10
2022-10-11T06:48:48.957Z,18.80
2022-10-11T06:51:19.021Z,18.60
2022-10-11T06:53:55.580Z,18.00
2022-10-11T06:56:22.885Z,19.30
2022-10-11T06:58:50.973Z,17.90
2022-10-11T07:01:21.270Z,20.70
2022-10-11T07:03:48.430Z,17.80
2022-10-11T07:06:19.094Z,20.30
2022-10-11T07:08:46.637Z,21.30
2022-10-11T07:11:23.146Z,20.90
2022-10-11T07:13:55.929Z,19.20
2022-10-11T07:16:24.229Z,17.40
2022-10-11T07:19:00.944Z,18.90
2022-10-11T07:21:29.303Z,17.60
2022-10-11T07:23:55.757Z,17.70
2022-10-11T07:26:22.258Z,21.30
2022-10-11T07:28:48.796Z,18.10
2022-10-11T07:31:20.109Z,18.00
2022-10-11T07:33:46.686Z,17.70
2022-10-11T07:36:14.204Z,17.30
2022-10-11T07:38:43.648Z,15.30
2022-10-11T07:41:11.501Z,17.60
2022-10-11T07:43:38.978Z,15.60
2022-10-11T07:46:06.300Z,15.60
2022-10-11T07:48:35.342Z,14.70
2022-10-11T07:51:11.162Z,16.10
2022-10-11T07:53:49.624Z,14.40
2022-10-11T07:56:26.743Z,15.40
2022-10-11T07:58:56.349Z,14.80
2022-10-11T08:01:24.883Z,18.40
2022-10-11T08:03:51.699Z,18.10
2022-10-11T08:06:22.874Z,15.30
2022-10-11T08:08:50.126Z,15.90
2022-10-11T08:11:36.743Z,16.90
2022-10-11T08:14:08.718Z,18.40
2022-10-11T08:16:37.856Z,18.60
2022-10-11T08:19:06.290Z,16.30
2022-10-11T08:21:33.435Z,19.20
2022-10-11T08:24:03.393Z,16.70
2022-10-11T08:26:30.517Z,13.70
2022-10-11T08:28:59.283Z,17.90
2022-10-11T08:31:25.708Z,16.20
2022-10-11T08:33:52.117Z,17.30
2022-10-11T08:36:18.564Z,15.60
2022-10-11T08:38:44.977Z,15.20
2022-10-11T08:41:31.673Z,16.10
2022-10-11T08:44:13.614Z,16.60
2022-10-11T08:46:45.532Z,17.40
2022-10-11T08:49:15.588Z,20.20
2022-10-11T08:51:48.503Z,15.90
2022-10-11T08:54:32.165Z,11.20
2022-10-11T08:57:01.022Z,12.10
2022-10-11T08:59:41.402Z,10.20
2022-10-11T09:02:43.650Z,10.50
2022-10-11T09:05:18.851Z,10.30
2022-10-11T09:08:14.278Z,9.70
2022-10-11T09:11:14.158Z,6.50
2022-10-11T09:14:21.085Z,11.10
2022-10-11T09:17:27.861Z,8.90
2022-10-11T09:20:19.699Z,12.00
2022-10-11T09:22:55.169Z,8.60
2022-10-11T09:25:35.575Z,8.10
2022-10-11T09:28:33.103Z,6.70
2022-10-11T09:31:00.123Z,6.60
2022-10-11T09:33:36.586Z,7.40
2022-10-11T09:36:19.612Z,9.00
2022-10-11T09:39:29.131Z,7.50
2022-10-11T09:42:06.973Z,5.80
2022-10-11T09:44:46.924Z,6.80
2022-10-11T09:47:27.889Z,8.20
2022-10-11T09:50:17.556Z,6.90
2022-10-11T09:53:00.696Z,6.40
2022-10-11T09:55:36.195Z,6.80
2022-10-11T09:58:05.948Z,6.20
2022-10-11T10:00:34.713Z,6.10
2022-10-11T10:03:04.582Z,4.50
2022-10-11T10:05:37.588Z,6.30
2022-10-11T10:08:24.282Z,7.90
2022-10-11T10:10:59.444Z,5.80
2022-10-11T10:13:44.549Z,4.80
2022-10-11T10:16:30.372Z,6.20
2022-10-11T10:19:18.351Z,5.70
2022-10-11T10:21:49.261Z,7.00
2022-10-11T10:24:34.401Z,6.30
2022-10-11T10:27:06.153Z,10.20
2022-10-11T10:29:33.225Z,5.40
2022-10-11T10:32:25.688Z,7.90
2022-10-11T10:35:16.762Z,6.40
2022-10-11T10:37:52.825Z,8.70
2022-10-11T10:40:40.579Z,5.20
2022-10-11T10:43:15.802Z,5.40
2022-10-11T10:46:19.618Z,5.60
2022-10-11T10:52:41.702Z,7.20
2022-10-11T10:55:26.644Z,8.00
2022-10-11T10:58:20.463Z,7.30
2022-10-11T11:00:50.217Z,6.90
2022-10-11T11:03:44.287Z,6.50
2022-10-11T11:06:37.345Z,6.60
2022-10-11T11:09:34.750Z,5.60
2022-10-11T11:12:36.187Z,7.60
2022-10-11T11:15:15.430Z,3.90
2022-10-11T11:18:28.508Z,3.10
2022-10-11T11:21:15.266Z,4.80
2022-10-11T11:24:06.577Z,7.20
2022-10-11T11:27:03.883Z,7.20
2022-10-11T11:29:55.363Z,4.40
2022-10-11T11:32:45.987Z,6.50
2022-10-11T11:35:34.536Z,5.20
2022-10-11T11:38:16.669Z,7.10
2022-10-11T11:40:50.151Z,6.00
2022-10-11T11:43:39.412Z,5.90
2022-10-11T11:46:17.544Z,5.60
2022-10-11T11:48:44.606Z,6.50
2022-10-11T11:51:30.422Z,5.60
2022-10-11T11:55:00.185Z,4.20
2022-10-11T11:57:57.480Z,4.90
2022-10-11T12:00:30.923Z,5.80
2022-10-11T12:03:12.553Z,4.50
2022-10-11T12:05:59.205Z,6.80
2022-10-11T12:08:33.929Z,7.10
2022-10-11T12:11:02.478Z,4.00
2022-10-11T12:13:36.986Z,5.50
2022-10-11T12:16:06.450Z,6.90
2022-10-11T12:18:40.536Z,4.90
2022-10-11T12:21:30.557Z,8.40
2022-10-11T12:24:09.854Z,5.80
2022-10-11T12:26:44.751Z,5.70
2022-10-11T12:29:17.267Z,5.60
2022-10-11T12:31:49.493Z,4.60
2022-10-11T12:34:34.209Z,5.00
2022-10-11T12:37:20.645Z,5.80
2022-10-11T12:39:57.025Z,7.50
2022-10-11T12:42:27.081Z,6.90
2022-10-11T12:45:12.172Z,7.60
2022-10-11T12:47:51.188Z,7.60
2022-10-11T12:50:57.626Z,5.30
2022-10-11T12:54:25.369Z,4.10
2022-10-11T12:57:03.319Z,6.00
2022-10-11T12:59:32.445Z,6.00
2022-10-11T13:02:00.508Z,7.60
2022-10-11T13:04:37.034Z,6.70
2022-10-11T13:07:15.613Z,10.80
2022-10-11T13:09:48.856Z,6.50
2022-10-11T13:12:26.092Z,6.30
2022-10-11T13:15:09.737Z,9.00
2022-10-11T13:17:40.445Z,7.10
2022-10-11T13:20:18.160Z,6.80
2022-10-11T13:22:50.475Z,5.70
2022-10-11T13:25:22.391Z,11.20
2022-10-11T13:27:52.668Z,7.50
2022-10-11T13:30:31.897Z,9.00
2022-10-11T13:33:00.607Z,10.70
2022-10-11T13:35:35.290Z,14.30
2022-10-11T13:38:04.001Z,15.60
2022-10-11T13:40:31.030Z,8.00
2022-10-11T13:42:58.838Z,4.70
2022-10-11T13:45:30.663Z,8.40
2022-10-11T13:47:57.949Z,5.70
2022-10-11T13:50:34.580Z,8.60
2022-10-11T13:53:21.105Z,10.60
2022-10-11T13:55:52.008Z,9.50
2022-10-11T13:58:40.491Z,17.40
2022-10-11T14:01:26.972Z,10.10
2022-10-11T14:03:59.348Z,6.90
2022-10-11T14:06:42.399Z,8.20
2022-10-11T14:09:38.524Z,5.60
2022-10-11T14:12:38.117Z,4.70
2022-10-11T14:15:23.694Z,4.80
2022-10-11T14:17:51.313Z,5.30
2022-10-11T14:20:43.751Z,7.30
2022-10-11T14:23:10.297Z,4.50
2022-10-11T14:25:36.713Z,4.30
2022-10-11T14:28:05.693Z,6.50
2022-10-11T14:30:32.195Z,12.20
2022-10-11T14:33:02.058Z,6.90
2022-10-11T14:35:32.225Z,7.70
2022-10-11T14:37:59.484Z,7.90
2022-10-11T14:40:30.074Z,7.60
2022-10-11T14:42:57.005Z,6.90
2022-10-11T14:45:24.352Z,5.80
2022-10-11T14:47:51.748Z,8.70
2022-10-11T14:50:36.498Z,11.10
2022-10-11T14:53:05.710Z,8.40
2022-10-11T14:55:32.482Z,9.10
2022-10-11T14:57:59.022Z,7.80
2022-10-11T15:00:29.706Z,54.90
2022-10-11T15:02:57.289Z,12.70
2022-10-11T15:05:33.728Z,7.50
2022-10-11T15:08:02.650Z,6.20
2022-10-11T15:10:37.211Z,5.70
2022-10-11T15:13:07.067Z,6.80
2022-10-11T15:15:36.939Z,7.90
2022-10-11T15:18:06.955Z,7.80
2022-10-11T15:20:41.782Z,7.60
2022-10-11T15:23:10.561Z,11.10
2022-10-11T15:25:39.981Z,30.70
2022-10-11T15:28:08.504Z,87.40
2022-10-11T15:30:41.365Z,32.00
2022-10-11T15:33:09.021Z,15.10
2022-10-11T15:35:35.548Z,79.50
2022-10-11T15:38:03.492Z,97.70
2022-10-11T15:40:37.072Z,125.60
2022-10-11T15:43:04.286Z,117.90
2022-10-11T15:45:31.115Z,251.00
2022-10-11T15:47:58.115Z,197.10
2022-10-11T15:50:39.652Z,232.80
2022-10-11T15:53:12.196Z,137.10
2022-10-11T15:55:43.722Z,104.00
2022-10-11T15:58:25.673Z,80.60
2022-10-11T16:00:55.868Z,75.60
2022-10-11T16:03:27.636Z,69.70
2022-10-11T16:05:55.365Z,65.10
2022-10-11T16:08:22.330Z,64.50
2022-10-11T16:10:49.639Z,65.00
2022-10-11T16:13:16.576Z,73.10
2022-10-11T16:15:44.874Z,54.50
2022-10-11T16:18:18.318Z,49.30
2022-10-11T16:20:47.894Z,43.50
2022-10-11T16:23:15.505Z,57.60
2022-10-11T16:25:41.934Z,60.90
2022-10-11T16:28:09.722Z,96.00
2022-10-11T16:30:43.298Z,76.10
2022-10-11T16:33:09.896Z,97.70
2022-10-11T16:35:41.019Z,63.00
2022-10-11T16:38:07.553Z,53.30
2022-10-11T16:40:35.868Z,93.60
2022-10-11T16:43:07.471Z,125.70
2022-10-11T16:45:35.740Z,124.50
2022-10-11T16:48:03.091Z,96.00
2022-10-11T16:50:29.545Z,89.20
2022-10-11T16:52:57.150Z,72.50
2022-10-11T16:55:24.374Z,60.90
2022-10-11T16:57:50.854Z,62.10
2022-10-11T17:00:17.492Z,60.40
2022-10-11T17:02:43.967Z,86.70
2022-10-11T17:05:10.384Z,57.00
2022-10-11T17:07:37.061Z,83.20
2022-10-11T17:10:05.119Z,72.10
2022-10-11T17:12:32.479Z,65.20
2022-10-11T17:14:58.919Z,49.30
2022-10-11T17:17:25.430Z,47.90
2022-10-11T17:19:51.879Z,47.90
2022-10-11T17:22:20.042Z,41.30
2022-10-11T17:24:46.571Z,42.50
2022-10-11T17:27:13.632Z,45.00
2022-10-11T17:29:40.334Z,43.70
2022-10-11T17:32:07.177Z,51.40
2022-10-11T17:34:33.937Z,56.50
2022-10-11T17:37:00.597Z,57.90
2022-10-11T17:39:27.146Z,74.20
2022-10-11T17:41:53.839Z,73.40
2022-10-11T17:44:21.707Z,83.00
2022-10-11T17:46:48.761Z,89.40
2022-10-11T17:49:15.989Z,93.20
2022-10-11T17:51:43.498Z,96.90
2022-10-11T17:54:13.442Z,93.70
2022-10-11T17:56:41.762Z,104.50
2022-10-11T17:59:21.268Z,86.40
2022-10-11T18:01:50.216Z,86.50
2022-10-11T18:04:19.416Z,78.10
2022-10-11T18:06:47.677Z,77.80
2022-10-11T18:09:18.281Z,76.40
2022-10-11T18:11:45.379Z,73.80
2022-10-11T18:14:12.531Z,70.70
2022-10-11T18:16:40.543Z,63.40
2022-10-11T18:19:12.387Z,59.10
2022-10-11T18:21:39.969Z,62.20
2022-10-11T18:24:12.505Z,57.10
2022-10-11T18:26:39.813Z,70.00
2022-10-11T18:29:06.745Z,67.20
2022-10-11T18:31:35.285Z,61.40
2022-10-11T18:34:03.884Z,60.10
2022-10-11T18:36:32.345Z,58.90
2022-10-11T18:39:04.301Z,55.30
2022-10-11T18:41:33.570Z,56.20
2022-10-11T18:44:03.484Z,54.90
2022-10-11T18:46:31.738Z,58.10
2022-10-11T18:49:01.917Z,51.00
2022-10-11T18:51:33.150Z,63.00
2022-10-11T18:54:00.955Z,66.60
2022-10-11T18:56:29.857Z,62.70
2022-10-11T18:58:57.729Z,69.10
2022-10-11T19:01:29.371Z,76.20
2022-10-11T19:03:59.031Z,78.60
2022-10-11T19:06:36.321Z,86.40
2022-10-11T19:09:17.670Z,93.10
2022-10-11T19:11:44.412Z,100.30
2022-10-11T19:14:15.125Z,113.70
2022-10-11T19:16:48.984Z,127.10
2022-10-11T19:19:18.559Z,132.10
2022-10-11T19:21:47.987Z,132.10
2022-10-11T19:24:20.229Z,118.10
2022-10-11T19:26:47.929Z,104.20
2022-10-11T19:29:21.268Z,98.00
2022-10-11T19:31:54.326Z,111.90
2022-10-11T19:34:21.999Z,164.00
2022-10-11T19:36:50.744Z,123.60
2022-10-11T19:39:18.645Z,118.20
2022-10-11T19:41:45.658Z,128.40
2022-10-11T19:44:13.852Z,129.70
2022-10-11T19:46:57.566Z,128.20
2022-10-11T19:49:25.918Z,118.70
2022-10-11T19:51:53.437Z,122.40
2022-10-11T19:54:19.967Z,119.80
2022-10-11T19:56:47.234Z,113.60
2022-10-11T19:59:14.567Z,121.10
2022-10-11T20:01:42.859Z,106.60
2022-10-11T20:04:33.221Z,110.90
2022-10-11T20:06:58.893Z,120.50
2022-10-11T20:09:30.348Z,115.60
2022-10-11T20:11:57.276Z,117.30
2022-10-11T20:14:23.925Z,132.80
2022-10-11T20:16:50.967Z,139.10
2022-10-11T20:19:18.619Z,167.20
2022-10-11T20:21:45.573Z,175.30
2022-10-11T20:24:12.297Z,166.80
2022-10-11T20:26:39.381Z,162.60
2022-10-11T20:29:06.753Z,170.00
2022-10-11T20:31:38.039Z,167.70
2022-10-11T20:34:07.213Z,193.40
2022-10-11T20:36:36.106Z,167.50
2022-10-11T20:39:05.723Z,158.90
2022-10-11T20:41:42.783Z,159.00
2022-10-11T20:44:09.784Z,170.70
2022-10-11T20:46:39.471Z,176.60
2022-10-11T20:49:11.745Z,169.10
2022-10-11T20:51:41.710Z,169.80
2022-10-11T20:54:09.033Z,173.00
2022-10-11T20:56:37.245Z,164.70
2022-10-11T20:59:05.138Z,161.00
2022-10-11T21:01:38.614Z,164.10
2022-10-11T21:04:07.581Z,169.00
2022-10-11T21:06:34.537Z,157.90
2022-10-11T21:09:01.826Z,157.70
2022-10-11T21:11:31.981Z,147.80
2022-10-11T21:14:02.558Z,150.00
2022-10-11T21:16:29.629Z,141.10
2022-10-11T21:18:59.104Z,151.70
2022-10-11T21:21:27.445Z,156.50
2022-10-11T21:23:56.221Z,161.10
2022-10-11T21:26:22.853Z,160.90
2022-10-11T21:28:49.735Z,158.80
2022-10-11T21:31:20.132Z,152.70
2022-10-11T21:33:46.945Z,166.80
2022-10-11T21:36:17.773Z,159.30
2022-10-11T21:38:45.074Z,151.30
2022-10-11T21:41:16.793Z,146.30
2022-10-11T21:43:43.501Z,144.80
2022-10-11T21:46:17.194Z,134.60
2022-10-11T21:48:43.973Z,125.10
2022-10-11T21:51:18.912Z,137.90
2022-10-11T21:53:45.391Z,152.30
2022-10-11T21:56:11.822Z,139.80
2022-10-11T21:58:38.268Z,150.10
2022-10-11T22:01:05.416Z,148.10
2022-10-11T22:03:32.204Z,158.00
2022-10-11T22:06:03.434Z,150.50
2022-10-11T22:08:30.361Z,154.80
2022-10-11T22:10:59.642Z,146.00
2022-10-11T22:13:28.764Z,133.50
2022-10-11T22:15:57.991Z,135.90
2022-10-11T22:18:25.226Z,130.30
2022-10-11T22:20:51.801Z,119.80
2022-10-11T22:23:19.108Z,122.80
2022-10-11T22:25:45.883Z,117.30
2022-10-11T22:28:13.111Z,115.50
2022-10-11T22:30:39.533Z,120.00
2022-10-11T22:33:05.966Z,112.40
2022-10-11T22:35:37.541Z,113.90
2022-10-11T22:38:06.508Z,108.90
2022-10-11T22:40:33.007Z,115.00
2022-10-11T22:42:59.574Z,106.10
2022-10-11T22:45:26.008Z,106.60
2022-10-11T22:47:52.461Z,96.90
2022-10-11T22:50:18.936Z,95.00
2022-10-11T22:52:45.347Z,80.80
2022-10-11T22:55:15.136Z,81.10
2022-10-11T22:57:44.035Z,84.80
2022-10-11T23:00:11.138Z,87.80
2022-10-11T23:02:37.601Z,88.20
2022-10-11T23:05:04.399Z,86.30
2022-10-11T23:07:30.797Z,87.10
2022-10-11T23:09:57.255Z,86.40
2022-10-11T23:12:23.741Z,62.80
2022-10-11T23:14:50.189Z,74.50
2022-10-11T23:17:16.669Z,74.20
2022-10-11T23:19:43.204Z,70.00
2022-10-11T23:22:09.665Z,66.80
2022-10-11T23:24:36.037Z,63.10
2022-10-11T23:27:02.568Z,62.40
2022-10-11T23:29:32.543Z,68.00
2022-10-11T23:31:59.039Z,69.90
2022-10-11T23:34:25.504Z,69.90
2022-10-11T23:36:51.932Z,73.20
2022-10-11T23:39:18.525Z,69.70
2022-10-11T23:41:45.067Z,73.10
2022-10-11T23:44:11.445Z,70.50
2022-10-11T23:46:37.818Z,73.20
2022-10-11T23:49:04.978Z,69.60
2022-10-11T23:51:31.573Z,66.00
2022-10-11T23:53:58.150Z,64.30
2022-10-11T23:56:24.749Z,66.80
2022-10-11T23:58:51.136Z,63.00
